Manvel, North Dakota
Current Conditions -  °F | °C
As of 3:53 AM on Thursday 23 Oct 2014 (Local Time) from KGFK Reporting Station
Overcast Overcast  
Wind Chill: 50°   Ceiling: 7500
Heat Index: 50°   Visibility: 10mi
Dew Point: 46°   Wind: 6mph
Humidity: 86%   Direction: 230°SW
Pressure: 29.83"   Gusts: NA
Location:  48.08°N, 97.18°W
Report Text: KGFK 230853Z AUTO 23005KT 10SM OVC075 10/08 A2983 RMK AO2 SLP105 T01000078 57003 TSNO
Loading
Personal Weather Stations






























Interactive Weather Map
Tropical Storm Tracking
New forecast layout! Learn more

10-Day Weather Forecast

Advertisements
Track Severe Weather on mobile